sensor_id;sensor_type;location;lat;lon;timestamp;P1;durP1;ratioP1;P2;durP2;ratioP2
22949;SDS011;11641;51.018;4.474;2023-02-13T00:02:18;66.55;;;31.98;;
22949;SDS011;11641;51.018;4.474;2023-02-13T00:04:44;71.78;;;31.27;;
22949;SDS011;11641;51.018;4.474;2023-02-13T00:07:09;76.40;;;31.95;;
22949;SDS011;11641;51.018;4.474;2023-02-13T00:09:36;68.82;;;31.50;;
22949;SDS011;11641;51.018;4.474;2023-02-13T00:12:02;73.40;;;32.72;;
22949;SDS011;11641;51.018;4.474;2023-02-13T00:14:29;77.85;;;33.33;;
22949;SDS011;11641;51.018;4.474;2023-02-13T00:16:55;75.68;;;33.63;;
22949;SDS011;11641;51.018;4.474;2023-02-13T00:19:20;74.22;;;34.08;;
22949;SDS011;11641;51.018;4.474;2023-02-13T00:21:46;83.10;;;34.55;;
22949;SDS011;11641;51.018;4.474;2023-02-13T00:24:14;75.68;;;34.20;;
22949;SDS011;11641;51.018;4.474;2023-02-13T00:26:40;82.07;;;35.83;;
22949;SDS011;11641;51.018;4.474;2023-02-13T00:29:05;69.35;;;33.92;;
22949;SDS011;11641;51.018;4.474;2023-02-13T00:31:31;77.70;;;34.63;;
22949;SDS011;11641;51.018;4.474;2023-02-13T00:33:59;77.50;;;34.92;;
22949;SDS011;11641;51.018;4.474;2023-02-13T00:36:25;77.35;;;34.17;;
22949;SDS011;11641;51.018;4.474;2023-02-13T00:38:52;76.45;;;33.17;;
22949;SDS011;11641;51.018;4.474;2023-02-13T00:41:18;81.60;;;35.53;;
22949;SDS011;11641;51.018;4.474;2023-02-13T00:43:46;79.32;;;34.92;;
22949;SDS011;11641;51.018;4.474;2023-02-13T00:46:15;80.30;;;34.42;;
22949;SDS011;11641;51.018;4.474;2023-02-13T00:48:41;82.80;;;35.40;;
22949;SDS011;11641;51.018;4.474;2023-02-13T00:51:10;81.97;;;35.33;;
22949;SDS011;11641;51.018;4.474;2023-02-13T00:53:36;79.55;;;35.05;;
22949;SDS011;11641;51.018;4.474;2023-02-13T00:56:03;80.47;;;34.47;;
22949;SDS011;11641;51.018;4.474;2023-02-13T00:58:29;78.10;;;32.95;;
22949;SDS011;11641;51.018;4.474;2023-02-13T01:00:55;84.97;;;35.65;;
22949;SDS011;11641;51.018;4.474;2023-02-13T01:03:21;82.90;;;36.65;;
22949;SDS011;11641;51.018;4.474;2023-02-13T01:05:48;77.60;;;35.60;;
22949;SDS011;11641;51.018;4.474;2023-02-13T01:08:14;86.28;;;36.85;;
22949;SDS011;11641;51.018;4.474;2023-02-13T01:10:44;93.95;;;37.03;;
22949;SDS011;11641;51.018;4.474;2023-02-13T01:13:11;88.82;;;35.47;;
22949;SDS011;11641;51.018;4.474;2023-02-13T01:15:38;83.97;;;34.75;;
22949;SDS011;11641;51.018;4.474;2023-02-13T01:18:04;84.63;;;36.97;;
22949;SDS011;11641;51.018;4.474;2023-02-13T01:20:30;87.43;;;37.20;;
22949;SDS011;11641;51.018;4.474;2023-02-13T01:22:56;84.70;;;36.25;;
22949;SDS011;11641;51.018;4.474;2023-02-13T01:25:25;84.60;;;36.47;;
22949;SDS011;11641;51.018;4.474;2023-02-13T01:27:52;84.88;;;35.53;;
22949;SDS011;11641;51.018;4.474;2023-02-13T01:30:18;83.20;;;35.75;;
22949;SDS011;11641;51.018;4.474;2023-02-13T01:32:44;81.10;;;34.63;;
22949;SDS011;11641;51.018;4.474;2023-02-13T01:35:12;84.63;;;35.00;;
22949;SDS011;11641;51.018;4.474;2023-02-13T01:37:38;82.72;;;34.85;;
22949;SDS011;11641;51.018;4.474;2023-02-13T01:40:06;87.22;;;36.85;;
22949;SDS011;11641;51.018;4.474;2023-02-13T01:42:34;77.68;;;34.00;;
22949;SDS011;11641;51.018;4.474;2023-02-13T01:45:01;85.05;;;34.92;;
22949;SDS011;11641;51.018;4.474;2023-02-13T01:47:49;79.95;;;34.38;;
22949;SDS011;11641;51.018;4.474;2023-02-13T01:52:53;77.57;;;33.50;;
22949;SDS011;11641;51.018;4.474;2023-02-13T01:55:26;74.63;;;32.72;;
22949;SDS011;11641;51.018;4.474;2023-02-13T01:57:54;75.72;;;33.70;;
22949;SDS011;11641;51.018;4.474;2023-02-13T02:00:26;77.45;;;34.83;;
22949;SDS011;11641;51.018;4.474;2023-02-13T02:03:10;82.68;;;34.78;;
22949;SDS011;11641;51.018;4.474;2023-02-13T02:05:38;76.43;;;32.75;;
22949;SDS011;11641;51.018;4.474;2023-02-13T02:08:05;81.72;;;32.97;;
22949;SDS011;11641;51.018;4.474;2023-02-13T02:10:37;76.97;;;31.77;;
22949;SDS011;11641;51.018;4.474;2023-02-13T02:13:05;79.78;;;34.17;;
22949;SDS011;11641;51.018;4.474;2023-02-13T02:15:35;78.22;;;33.80;;
22949;SDS011;11641;51.018;4.474;2023-02-13T02:18:01;88.07;;;36.05;;
22949;SDS011;11641;51.018;4.474;2023-02-13T02:32:06;79.55;;;33.85;;
22949;SDS011;11641;51.018;4.474;2023-02-13T02:35:00;92.72;;;36.70;;
22949;SDS011;11641;51.018;4.474;2023-02-13T02:56:55;100.25;;;37.72;;
22949;SDS011;11641;51.018;4.474;2023-02-13T02:59:27;93.90;;;38.42;;
22949;SDS011;11641;51.018;4.474;2023-02-13T03:02:14;100.97;;;39.13;;
22949;SDS011;11641;51.018;4.474;2023-02-13T03:04:59;102.85;;;40.10;;
22949;SDS011;11641;51.018;4.474;2023-02-13T03:07:45;103.28;;;39.85;;
22949;SDS011;11641;51.018;4.474;2023-02-13T03:10:12;103.75;;;39.80;;
22949;SDS011;11641;51.018;4.474;2023-02-13T03:13:08;94.38;;;38.20;;
22949;SDS011;11641;51.018;4.474;2023-02-13T03:15:45;108.28;;;40.25;;
22949;SDS011;11641;51.018;4.474;2023-02-13T03:18:34;108.50;;;41.03;;
22949;SDS011;11641;51.018;4.474;2023-02-13T03:24:48;103.93;;;39.25;;
22949;SDS011;11641;51.018;4.474;2023-02-13T03:27:38;97.72;;;35.40;;
22949;SDS011;11641;51.018;4.474;2023-02-13T03:30:38;101.13;;;37.65;;
22949;SDS011;11641;51.018;4.474;2023-02-13T03:33:20;89.65;;;35.88;;
22949;SDS011;11641;51.018;4.474;2023-02-13T03:39:20;96.68;;;36.30;;
22949;SDS011;11641;51.018;4.474;2023-02-13T03:41:55;98.72;;;36.28;;
22949;SDS011;11641;51.018;4.474;2023-02-13T03:44:29;206.93;;;39.35;;
22949;SDS011;11641;51.018;4.474;2023-02-13T03:47:05;232.00;;;40.10;;
22949;SDS011;11641;51.018;4.474;2023-02-13T03:49:40;238.75;;;38.60;;
22949;SDS011;11641;51.018;4.474;2023-02-13T03:52:30;112.93;;;25.98;;
22949;SDS011;11641;51.018;4.474;2023-02-13T03:55:24;254.25;;;36.35;;
22949;SDS011;11641;51.018;4.474;2023-02-13T03:58:15;116.15;;;24.80;;
22949;SDS011;11641;51.018;4.474;2023-02-13T04:01:05;258.02;;;35.58;;
22949;SDS011;11641;51.018;4.474;2023-02-13T04:06:03;457.10;;;37.95;;
22949;SDS011;11641;51.018;4.474;2023-02-13T04:08:36;281.45;;;33.53;;
22949;SDS011;11641;51.018;4.474;2023-02-13T04:11:06;240.40;;;33.38;;
22949;SDS011;11641;51.018;4.474;2023-02-13T04:13:38;219.98;;;32.50;;
22949;SDS011;11641;51.018;4.474;2023-02-13T04:16:15;344.73;;;35.08;;
22949;SDS011;11641;51.018;4.474;2023-02-13T04:18:54;203.68;;;30.80;;
22949;SDS011;11641;51.018;4.474;2023-02-13T04:21:24;432.45;;;36.95;;
22949;SDS011;11641;51.018;4.474;2023-02-13T04:23:51;478.27;;;39.70;;
22949;SDS011;11641;51.018;4.474;2023-02-13T04:26:20;260.45;;;30.02;;
22949;SDS011;11641;51.018;4.474;2023-02-13T04:28:47;321.08;;;33.10;;
22949;SDS011;11641;51.018;4.474;2023-02-13T04:31:13;344.08;;;31.20;;
22949;SDS011;11641;51.018;4.474;2023-02-13T04:33:39;369.75;;;32.47;;
22949;SDS011;11641;51.018;4.474;2023-02-13T04:36:10;458.90;;;37.10;;
22949;SDS011;11641;51.018;4.474;2023-02-13T04:38:36;300.60;;;31.70;;
22949;SDS011;11641;51.018;4.474;2023-02-13T04:41:03;477.80;;;36.13;;
22949;SDS011;11641;51.018;4.474;2023-02-13T04:43:29;417.70;;;36.55;;
22949;SDS011;11641;51.018;4.474;2023-02-13T04:45:55;418.17;;;37.85;;
22949;SDS011;11641;51.018;4.474;2023-02-13T04:48:20;449.23;;;36.25;;
22949;SDS011;11641;51.018;4.474;2023-02-13T04:50:46;405.80;;;36.05;;
22949;SDS011;11641;51.018;4.474;2023-02-13T04:53:12;474.27;;;36.95;;
22949;SDS011;11641;51.018;4.474;2023-02-13T04:55:37;418.88;;;37.42;;
22949;SDS011;11641;51.018;4.474;2023-02-13T04:58:03;179.07;;;29.63;;
22949;SDS011;11641;51.018;4.474;2023-02-13T05:00:29;412.80;;;35.40;;
22949;SDS011;11641;51.018;4.474;2023-02-13T05:02:59;277.35;;;32.10;;
22949;SDS011;11641;51.018;4.474;2023-02-13T05:07:54;160.07;;;27.25;;
22949;SDS011;11641;51.018;4.474;2023-02-13T05:10:19;197.00;;;29.52;;
22949;SDS011;11641;51.018;4.474;2023-02-13T05:12:46;204.00;;;30.88;;
22949;SDS011;11641;51.018;4.474;2023-02-13T05:15:12;113.75;;;27.20;;
22949;SDS011;11641;51.018;4.474;2023-02-13T05:17:37;117.93;;;27.67;;
22949;SDS011;11641;51.018;4.474;2023-02-13T05:20:04;236.10;;;29.38;;
22949;SDS011;11641;51.018;4.474;2023-02-13T05:22:30;106.72;;;25.83;;
22949;SDS011;11641;51.018;4.474;2023-02-13T05:27:42;167.57;;;26.85;;
22949;SDS011;11641;51.018;4.474;2023-02-13T05:30:08;97.25;;;24.85;;
22949;SDS011;11641;51.018;4.474;2023-02-13T05:32:34;75.22;;;25.10;;
22949;SDS011;11641;51.018;4.474;2023-02-13T05:35:02;104.82;;;23.83;;
22949;SDS011;11641;51.018;4.474;2023-02-13T05:37:28;72.57;;;22.65;;
22949;SDS011;11641;51.018;4.474;2023-02-13T05:39:54;87.43;;;22.48;;
22949;SDS011;11641;51.018;4.474;2023-02-13T05:42:23;83.35;;;23.23;;
22949;SDS011;11641;51.018;4.474;2023-02-13T05:44:49;80.25;;;22.52;;
22949;SDS011;11641;51.018;4.474;2023-02-13T05:47:14;56.35;;;21.83;;
22949;SDS011;11641;51.018;4.474;2023-02-13T05:49:40;118.88;;;23.30;;
22949;SDS011;11641;51.018;4.474;2023-02-13T05:52:05;61.22;;;21.10;;
22949;SDS011;11641;51.018;4.474;2023-02-13T05:54:31;72.13;;;22.50;;
22949;SDS011;11641;51.018;4.474;2023-02-13T05:56:57;63.40;;;22.85;;
22949;SDS011;11641;51.018;4.474;2023-02-13T05:59:23;80.95;;;23.80;;
22949;SDS011;11641;51.018;4.474;2023-02-13T06:01:50;78.55;;;22.52;;
22949;SDS011;11641;51.018;4.474;2023-02-13T06:04:16;45.08;;;21.85;;
22949;SDS011;11641;51.018;4.474;2023-02-13T06:06:42;67.72;;;22.33;;
22949;SDS011;11641;51.018;4.474;2023-02-13T06:09:09;37.60;;;21.00;;
22949;SDS011;11641;51.018;4.474;2023-02-13T06:11:35;48.17;;;21.25;;
22949;SDS011;11641;51.018;4.474;2023-02-13T06:14:00;87.72;;;20.90;;
22949;SDS011;11641;51.018;4.474;2023-02-13T06:16:26;51.60;;;19.05;;
22949;SDS011;11641;51.018;4.474;2023-02-13T06:18:54;47.60;;;18.92;;
22949;SDS011;11641;51.018;4.474;2023-02-13T06:21:19;51.65;;;20.50;;
22949;SDS011;11641;51.018;4.474;2023-02-13T06:23:47;33.80;;;19.52;;
22949;SDS011;11641;51.018;4.474;2023-02-13T06:26:16;45.08;;;18.95;;
22949;SDS011;11641;51.018;4.474;2023-02-13T06:28:42;33.65;;;16.92;;
22949;SDS011;11641;51.018;4.474;2023-02-13T06:31:08;31.90;;;17.77;;
22949;SDS011;11641;51.018;4.474;2023-02-13T06:33:34;33.03;;;18.15;;
22949;SDS011;11641;51.018;4.474;2023-02-13T06:35:59;59.85;;;19.52;;
22949;SDS011;11641;51.018;4.474;2023-02-13T06:38:27;38.67;;;19.38;;
22949;SDS011;11641;51.018;4.474;2023-02-13T06:40:57;39.05;;;19.65;;
22949;SDS011;11641;51.018;4.474;2023-02-13T06:43:26;36.25;;;18.08;;
22949;SDS011;11641;51.018;4.474;2023-02-13T06:45:52;35.13;;;18.83;;
22949;SDS011;11641;51.018;4.474;2023-02-13T06:48:18;32.92;;;18.90;;
22949;SDS011;11641;51.018;4.474;2023-02-13T06:50:44;36.38;;;19.25;;
22949;SDS011;11641;51.018;4.474;2023-02-13T06:53:09;34.88;;;19.30;;
22949;SDS011;11641;51.018;4.474;2023-02-13T06:55:37;34.88;;;19.08;;
22949;SDS011;11641;51.018;4.474;2023-02-13T06:58:04;32.42;;;19.00;;
22949;SDS011;11641;51.018;4.474;2023-02-13T07:00:30;35.17;;;19.80;;
22949;SDS011;11641;51.018;4.474;2023-02-13T07:03:00;33.30;;;19.42;;
22949;SDS011;11641;51.018;4.474;2023-02-13T07:05:28;27.65;;;17.35;;
22949;SDS011;11641;51.018;4.474;2023-02-13T07:07:54;26.50;;;17.42;;
22949;SDS011;11641;51.018;4.474;2023-02-13T07:10:20;30.13;;;18.60;;
22949;SDS011;11641;51.018;4.474;2023-02-13T07:12:45;33.45;;;18.88;;
22949;SDS011;11641;51.018;4.474;2023-02-13T07:15:11;32.95;;;18.77;;
22949;SDS011;11641;51.018;4.474;2023-02-13T07:17:37;31.30;;;18.70;;
22949;SDS011;11641;51.018;4.474;2023-02-13T07:20:03;31.33;;;18.38;;
22949;SDS011;11641;51.018;4.474;2023-02-13T07:22:30;33.22;;;19.13;;
22949;SDS011;11641;51.018;4.474;2023-02-13T07:24:57;28.67;;;18.95;;
22949;SDS011;11641;51.018;4.474;2023-02-13T07:27:24;31.08;;;19.40;;
22949;SDS011;11641;51.018;4.474;2023-02-13T07:29:56;30.38;;;18.48;;
22949;SDS011;11641;51.018;4.474;2023-02-13T07:32:24;33.50;;;18.90;;
22949;SDS011;11641;51.018;4.474;2023-02-13T07:34:50;31.42;;;18.13;;
22949;SDS011;11641;51.018;4.474;2023-02-13T07:37:16;32.45;;;19.02;;
22949;SDS011;11641;51.018;4.474;2023-02-13T07:39:42;34.42;;;18.75;;
22949;SDS011;11641;51.018;4.474;2023-02-13T07:42:07;32.25;;;18.73;;
22949;SDS011;11641;51.018;4.474;2023-02-13T07:44:33;31.52;;;19.23;;
22949;SDS011;11641;51.018;4.474;2023-02-13T07:46:59;29.95;;;18.77;;
22949;SDS011;11641;51.018;4.474;2023-02-13T07:49:25;32.83;;;19.42;;
22949;SDS011;11641;51.018;4.474;2023-02-13T07:51:50;35.53;;;19.58;;
22949;SDS011;11641;51.018;4.474;2023-02-13T07:54:19;32.80;;;18.58;;
22949;SDS011;11641;51.018;4.474;2023-02-13T07:56:44;32.20;;;19.42;;
22949;SDS011;11641;51.018;4.474;2023-02-13T07:59:10;33.95;;;18.95;;
22949;SDS011;11641;51.018;4.474;2023-02-13T08:01:36;36.17;;;19.27;;
22949;SDS011;11641;51.018;4.474;2023-02-13T08:04:02;33.58;;;19.67;;
22949;SDS011;11641;51.018;4.474;2023-02-13T08:06:28;30.60;;;17.55;;
22949;SDS011;11641;51.018;4.474;2023-02-13T08:08:54;34.13;;;19.13;;
22949;SDS011;11641;51.018;4.474;2023-02-13T08:11:43;31.27;;;18.25;;
22949;SDS011;11641;51.018;4.474;2023-02-13T08:14:19;30.23;;;18.08;;
22949;SDS011;11641;51.018;4.474;2023-02-13T08:16:46;33.03;;;18.25;;
22949;SDS011;11641;51.018;4.474;2023-02-13T08:19:12;34.08;;;18.98;;
22949;SDS011;11641;51.018;4.474;2023-02-13T08:21:37;34.22;;;19.88;;
22949;SDS011;11641;51.018;4.474;2023-02-13T08:24:05;34.75;;;19.88;;
22949;SDS011;11641;51.018;4.474;2023-02-13T08:26:32;31.55;;;18.90;;
22949;SDS011;11641;51.018;4.474;2023-02-13T08:28:58;33.60;;;19.27;;
22949;SDS011;11641;51.018;4.474;2023-02-13T08:31:24;29.75;;;18.42;;
22949;SDS011;11641;51.018;4.474;2023-02-13T08:33:54;32.30;;;19.88;;
22949;SDS011;11641;51.018;4.474;2023-02-13T08:36:21;29.48;;;18.50;;
22949;SDS011;11641;51.018;4.474;2023-02-13T08:38:47;29.73;;;18.98;;
22949;SDS011;11641;51.018;4.474;2023-02-13T08:41:13;30.85;;;18.48;;
22949;SDS011;11641;51.018;4.474;2023-02-13T08:43:39;32.25;;;19.63;;
22949;SDS011;11641;51.018;4.474;2023-02-13T08:46:05;30.45;;;19.70;;
22949;SDS011;11641;51.018;4.474;2023-02-13T08:48:31;31.65;;;19.65;;
22949;SDS011;11641;51.018;4.474;2023-02-13T08:50:57;29.48;;;18.60;;
22949;SDS011;11641;51.018;4.474;2023-02-13T08:53:22;28.25;;;18.85;;
22949;SDS011;11641;51.018;4.474;2023-02-13T08:55:54;30.88;;;18.25;;
22949;SDS011;11641;51.018;4.474;2023-02-13T08:58:21;30.08;;;18.15;;
22949;SDS011;11641;51.018;4.474;2023-02-13T09:00:47;32.85;;;18.52;;
22949;SDS011;11641;51.018;4.474;2023-02-13T09:03:15;29.58;;;18.92;;
22949;SDS011;11641;51.018;4.474;2023-02-13T09:05:41;31.73;;;20.23;;
22949;SDS011;11641;51.018;4.474;2023-02-13T09:08:07;36.80;;;21.27;;
22949;SDS011;11641;51.018;4.474;2023-02-13T09:10:35;34.67;;;21.40;;
22949;SDS011;11641;51.018;4.474;2023-02-13T09:13:02;31.02;;;21.23;;
22949;SDS011;11641;51.018;4.474;2023-02-13T09:15:28;35.67;;;20.77;;
22949;SDS011;11641;51.018;4.474;2023-02-13T09:17:55;31.75;;;20.17;;
22949;SDS011;11641;51.018;4.474;2023-02-13T09:20:20;30.90;;;19.30;;
22949;SDS011;11641;51.018;4.474;2023-02-13T09:22:47;30.35;;;17.25;;
22949;SDS011;11641;51.018;4.474;2023-02-13T09:25:13;26.45;;;17.20;;
22949;SDS011;11641;51.018;4.474;2023-02-13T09:27:39;23.38;;;16.45;;
22949;SDS011;11641;51.018;4.474;2023-02-13T09:30:07;28.60;;;16.00;;
22949;SDS011;11641;51.018;4.474;2023-02-13T09:32:35;24.73;;;15.85;;
22949;SDS011;11641;51.018;4.474;2023-02-13T09:35:02;23.40;;;15.02;;
22949;SDS011;11641;51.018;4.474;2023-02-13T09:37:30;23.90;;;16.33;;
22949;SDS011;11641;51.018;4.474;2023-02-13T09:39:56;21.33;;;15.18;;
22949;SDS011;11641;51.018;4.474;2023-02-13T09:42:23;23.48;;;15.35;;
22949;SDS011;11641;51.018;4.474;2023-02-13T09:44:53;22.08;;;14.95;;
22949;SDS011;11641;51.018;4.474;2023-02-13T09:49:53;20.85;;;14.18;;
22949;SDS011;11641;51.018;4.474;2023-02-13T09:52:24;22.65;;;14.55;;
22949;SDS011;11641;51.018;4.474;2023-02-13T09:54:52;24.55;;;14.77;;
22949;SDS011;11641;51.018;4.474;2023-02-13T09:57:27;19.88;;;13.77;;
22949;SDS011;11641;51.018;4.474;2023-02-13T10:00:09;19.10;;;13.73;;
22949;SDS011;11641;51.018;4.474;2023-02-13T10:03:00;21.38;;;14.68;;
22949;SDS011;11641;51.018;4.474;2023-02-13T10:05:58;24.13;;;15.90;;
22949;SDS011;11641;51.018;4.474;2023-02-13T10:16:52;19.05;;;13.32;;
22949;SDS011;11641;51.018;4.474;2023-02-13T10:19:31;17.70;;;13.63;;
22949;SDS011;11641;51.018;4.474;2023-02-13T10:27:53;19.45;;;13.60;;
22949;SDS011;11641;51.018;4.474;2023-02-13T10:30:27;16.27;;;12.88;;
22949;SDS011;11641;51.018;4.474;2023-02-13T10:33:03;14.75;;;12.95;;
22949;SDS011;11641;51.018;4.474;2023-02-13T10:38:17;17.08;;;12.80;;
22949;SDS011;11641;51.018;4.474;2023-02-13T10:41:04;16.83;;;12.05;;
22949;SDS011;11641;51.018;4.474;2023-02-13T10:43:48;15.25;;;12.27;;
22949;SDS011;11641;51.018;4.474;2023-02-13T10:54:49;15.40;;;11.23;;
22949;SDS011;11641;51.018;4.474;2023-02-13T11:03:24;17.05;;;12.55;;
22949;SDS011;11641;51.018;4.474;2023-02-13T11:05:52;18.85;;;12.55;;
22949;SDS011;11641;51.018;4.474;2023-02-13T11:08:24;18.88;;;11.50;;
22949;SDS011;11641;51.018;4.474;2023-02-13T11:10:54;15.93;;;11.93;;
22949;SDS011;11641;51.018;4.474;2023-02-13T11:13:27;13.27;;;11.23;;
22949;SDS011;11641;51.018;4.474;2023-02-13T11:16:01;15.65;;;13.00;;
22949;SDS011;11641;51.018;4.474;2023-02-13T11:18:31;14.50;;;11.35;;
22949;SDS011;11641;51.018;4.474;2023-02-13T11:21:35;16.73;;;11.10;;
22949;SDS011;11641;51.018;4.474;2023-02-13T11:23:59;14.20;;;11.40;;
22949;SDS011;11641;51.018;4.474;2023-02-13T11:26:28;15.45;;;11.82;;
22949;SDS011;11641;51.018;4.474;2023-02-13T11:31:46;12.13;;;10.27;;
22949;SDS011;11641;51.018;4.474;2023-02-13T11:34:42;12.90;;;9.77;;
22949;SDS011;11641;51.018;4.474;2023-02-13T11:39:41;11.65;;;8.93;;
22949;SDS011;11641;51.018;4.474;2023-02-13T11:44:58;10.27;;;8.30;;
22949;SDS011;11641;51.018;4.474;2023-02-13T11:50:04;11.65;;;9.30;;
22949;SDS011;11641;51.018;4.474;2023-02-13T11:52:54;11.02;;;8.73;;
22949;SDS011;11641;51.018;4.474;2023-02-13T11:55:33;11.23;;;8.75;;
22949;SDS011;11641;51.018;4.474;2023-02-13T12:00:40;11.07;;;7.93;;
22949;SDS011;11641;51.018;4.474;2023-02-13T12:06:12;10.75;;;9.20;;
22949;SDS011;11641;51.018;4.474;2023-02-13T12:08:41;9.93;;;8.50;;
22949;SDS011;11641;51.018;4.474;2023-02-13T12:11:33;10.73;;;9.32;;
22949;SDS011;11641;51.018;4.474;2023-02-13T12:14:03;10.77;;;8.80;;
22949;SDS011;11641;51.018;4.474;2023-02-13T12:16:31;12.27;;;9.43;;
22949;SDS011;11641;51.018;4.474;2023-02-13T12:19:05;11.65;;;8.93;;
22949;SDS011;11641;51.018;4.474;2023-02-13T12:21:43;11.25;;;9.25;;
22949;SDS011;11641;51.018;4.474;2023-02-13T12:24:28;10.10;;;8.57;;
22949;SDS011;11641;51.018;4.474;2023-02-13T12:38:21;9.18;;;8.20;;
22949;SDS011;11641;51.018;4.474;2023-02-13T12:41:17;10.43;;;9.30;;
22949;SDS011;11641;51.018;4.474;2023-02-13T12:57:59;10.02;;;8.52;;
22949;SDS011;11641;51.018;4.474;2023-02-13T13:00:57;12.35;;;8.48;;
22949;SDS011;11641;51.018;4.474;2023-02-13T13:06:14;10.98;;;7.95;;
22949;SDS011;11641;51.018;4.474;2023-02-13T13:14:26;13.02;;;8.90;;
22949;SDS011;11641;51.018;4.474;2023-02-13T13:27:42;9.60;;;8.35;;
22949;SDS011;11641;51.018;4.474;2023-02-13T13:32:53;11.88;;;8.20;;
22949;SDS011;11641;51.018;4.474;2023-02-13T13:35:24;12.20;;;8.88;;
22949;SDS011;11641;51.018;4.474;2023-02-13T13:41:00;11.68;;;8.35;;
22949;SDS011;11641;51.018;4.474;2023-02-13T13:49:04;10.00;;;7.93;;
22949;SDS011;11641;51.018;4.474;2023-02-13T13:51:38;13.00;;;8.57;;
22949;SDS011;11641;51.018;4.474;2023-02-13T13:59:17;8.68;;;7.60;;
22949;SDS011;11641;51.018;4.474;2023-02-13T14:05:07;9.52;;;7.35;;
22949;SDS011;11641;51.018;4.474;2023-02-13T14:07:51;9.38;;;7.47;;
22949;SDS011;11641;51.018;4.474;2023-02-13T14:20:37;9.55;;;7.70;;
22949;SDS011;11641;51.018;4.474;2023-02-13T14:23:07;10.30;;;7.32;;
22949;SDS011;11641;51.018;4.474;2023-02-13T14:25:43;11.25;;;7.45;;
22949;SDS011;11641;51.018;4.474;2023-02-13T14:28:24;8.75;;;7.15;;
22949;SDS011;11641;51.018;4.474;2023-02-13T14:30:52;10.27;;;7.38;;
22949;SDS011;11641;51.018;4.474;2023-02-13T14:33:31;11.95;;;7.95;;
22949;SDS011;11641;51.018;4.474;2023-02-13T14:35:58;8.68;;;7.53;;
22949;SDS011;11641;51.018;4.474;2023-02-13T14:38:32;7.95;;;7.10;;
22949;SDS011;11641;51.018;4.474;2023-02-13T14:41:00;9.50;;;7.63;;
22949;SDS011;11641;51.018;4.474;2023-02-13T14:43:33;8.90;;;7.15;;
22949;SDS011;11641;51.018;4.474;2023-02-13T14:51:56;10.73;;;7.47;;
22949;SDS011;11641;51.018;4.474;2023-02-13T14:54:29;10.23;;;7.50;;
22949;SDS011;11641;51.018;4.474;2023-02-13T14:59:37;9.23;;;7.30;;
22949;SDS011;11641;51.018;4.474;2023-02-13T15:04:46;9.30;;;6.90;;
22949;SDS011;11641;51.018;4.474;2023-02-13T15:07:26;10.23;;;7.05;;
22949;SDS011;11641;51.018;4.474;2023-02-13T15:09:59;8.63;;;7.15;;
22949;SDS011;11641;51.018;4.474;2023-02-13T15:12:35;7.53;;;6.72;;
22949;SDS011;11641;51.018;4.474;2023-02-13T15:15:02;9.18;;;7.00;;
22949;SDS011;11641;51.018;4.474;2023-02-13T15:17:52;8.45;;;7.50;;
22949;SDS011;11641;51.018;4.474;2023-02-13T15:20:26;8.98;;;6.97;;
22949;SDS011;11641;51.018;4.474;2023-02-13T15:22:55;10.02;;;7.60;;
22949;SDS011;11641;51.018;4.474;2023-02-13T15:25:22;10.90;;;7.78;;
22949;SDS011;11641;51.018;4.474;2023-02-13T15:28:00;11.13;;;8.38;;
22949;SDS011;11641;51.018;4.474;2023-02-13T15:30:31;9.27;;;7.22;;
22949;SDS011;11641;51.018;4.474;2023-02-13T15:33:16;11.63;;;7.88;;
22949;SDS011;11641;51.018;4.474;2023-02-13T15:35:46;9.32;;;7.28;;
22949;SDS011;11641;51.018;4.474;2023-02-13T15:40:57;12.75;;;7.65;;
22949;SDS011;11641;51.018;4.474;2023-02-13T15:46:33;12.70;;;7.50;;
22949;SDS011;11641;51.018;4.474;2023-02-13T15:49:04;9.93;;;7.47;;
22949;SDS011;11641;51.018;4.474;2023-02-13T15:51:32;11.25;;;7.60;;
22949;SDS011;11641;51.018;4.474;2023-02-13T15:54:03;14.38;;;7.80;;
22949;SDS011;11641;51.018;4.474;2023-02-13T15:56:31;10.07;;;7.80;;
22949;SDS011;11641;51.018;4.474;2023-02-13T15:58:57;9.95;;;7.55;;
22949;SDS011;11641;51.018;4.474;2023-02-13T16:01:25;9.98;;;7.80;;
22949;SDS011;11641;51.018;4.474;2023-02-13T16:03:53;11.45;;;7.95;;
22949;SDS011;11641;51.018;4.474;2023-02-13T16:08:53;11.10;;;8.60;;
22949;SDS011;11641;51.018;4.474;2023-02-13T16:11:39;12.75;;;8.50;;
22949;SDS011;11641;51.018;4.474;2023-02-13T16:14:13;11.98;;;8.40;;
22949;SDS011;11641;51.018;4.474;2023-02-13T16:16:46;10.98;;;8.25;;
22949;SDS011;11641;51.018;4.474;2023-02-13T16:19:23;13.95;;;8.80;;
22949;SDS011;11641;51.018;4.474;2023-02-13T16:21:53;12.52;;;8.45;;
22949;SDS011;11641;51.018;4.474;2023-02-13T16:24:20;12.82;;;8.75;;
22949;SDS011;11641;51.018;4.474;2023-02-13T16:26:47;11.85;;;8.15;;
22949;SDS011;11641;51.018;4.474;2023-02-13T16:29:18;13.85;;;8.98;;
22949;SDS011;11641;51.018;4.474;2023-02-13T16:31:47;13.25;;;8.90;;
22949;SDS011;11641;51.018;4.474;2023-02-13T16:34:27;12.07;;;8.52;;
22949;SDS011;11641;51.018;4.474;2023-02-13T16:36:54;12.85;;;8.27;;
22949;SDS011;11641;51.018;4.474;2023-02-13T16:39:25;12.48;;;8.43;;
22949;SDS011;11641;51.018;4.474;2023-02-13T16:41:53;13.65;;;8.25;;
22949;SDS011;11641;51.018;4.474;2023-02-13T16:44:24;13.10;;;8.35;;
22949;SDS011;11641;51.018;4.474;2023-02-13T16:47:00;11.80;;;7.97;;
22949;SDS011;11641;51.018;4.474;2023-02-13T16:49:35;11.88;;;8.18;;
22949;SDS011;11641;51.018;4.474;2023-02-13T16:52:17;19.55;;;7.53;;
22949;SDS011;11641;51.018;4.474;2023-02-13T16:54:52;14.25;;;7.63;;
22949;SDS011;11641;51.018;4.474;2023-02-13T16:57:28;12.02;;;7.70;;
22949;SDS011;11641;51.018;4.474;2023-02-13T17:00:01;11.63;;;7.00;;
22949;SDS011;11641;51.018;4.474;2023-02-13T17:02:33;13.93;;;7.90;;
22949;SDS011;11641;51.018;4.474;2023-02-13T17:07:36;14.52;;;7.45;;
22949;SDS011;11641;51.018;4.474;2023-02-13T17:12:49;14.73;;;7.63;;
22949;SDS011;11641;51.018;4.474;2023-02-13T17:15:16;12.57;;;7.30;;
22949;SDS011;11641;51.018;4.474;2023-02-13T17:17:43;14.77;;;7.97;;
22949;SDS011;11641;51.018;4.474;2023-02-13T17:20:17;11.95;;;7.40;;
22949;SDS011;11641;51.018;4.474;2023-02-13T17:22:48;14.45;;;8.73;;
22949;SDS011;11641;51.018;4.474;2023-02-13T17:25:23;12.98;;;8.00;;
22949;SDS011;11641;51.018;4.474;2023-02-13T17:27:51;17.48;;;10.40;;
22949;SDS011;11641;51.018;4.474;2023-02-13T17:30:19;18.15;;;10.10;;
22949;SDS011;11641;51.018;4.474;2023-02-13T17:32:47;17.80;;;10.85;;
22949;SDS011;11641;51.018;4.474;2023-02-13T17:35:14;19.92;;;10.98;;
22949;SDS011;11641;51.018;4.474;2023-02-13T17:37:41;19.42;;;10.73;;
22949;SDS011;11641;51.018;4.474;2023-02-13T17:40:12;15.45;;;9.48;;
22949;SDS011;11641;51.018;4.474;2023-02-13T17:42:40;17.35;;;9.75;;
22949;SDS011;11641;51.018;4.474;2023-02-13T17:45:09;16.70;;;9.40;;
22949;SDS011;11641;51.018;4.474;2023-02-13T17:47:37;17.58;;;9.32;;
22949;SDS011;11641;51.018;4.474;2023-02-13T17:50:05;19.20;;;9.45;;
22949;SDS011;11641;51.018;4.474;2023-02-13T17:52:32;19.90;;;9.65;;
22949;SDS011;11641;51.018;4.474;2023-02-13T17:54:58;17.50;;;9.40;;
22949;SDS011;11641;51.018;4.474;2023-02-13T17:57:24;16.77;;;9.55;;
22949;SDS011;11641;51.018;4.474;2023-02-13T17:59:53;16.63;;;9.75;;
22949;SDS011;11641;51.018;4.474;2023-02-13T18:02:21;16.77;;;8.63;;